Time;durP1;ratioP1;P1;durP2;ratioP2;P2;SDS_P1;SDS_P2;PMS_P1;PMS_P2;Temp;Humidity;BMP_temperature;BMP_pressure;BME280_temperature;BME280_humidity;BME280_pressure;Samples;Min_cycle;Max_cycle;Signal;HPM_P1;HPM_P2
2022/04/29 03:01:08;;;;;;;18.20;7.45;;;5.90;99.90;;;;;;5711208;23;20042;-82
2022/04/29 03:03:34;;;;;;;15.20;6.50;;;5.90;99.90;;;;;;5016760;28;20045;-83
2022/04/29 03:05:59;;;;;;;20.05;6.80;;;5.80;99.90;;;;;;5016692;28;20042;-81
2022/04/29 03:08:25;;;;;;;16.13;6.30;;;5.80;99.90;;;;;;4999973;28;20041;-82
2022/04/29 03:10:50;;;;;;;15.00;7.10;;;5.80;99.90;;;;;;5016495;28;20520;-82
2022/04/29 03:13:16;;;;;;;12.77;6.10;;;5.70;99.90;;;;;;5000012;28;20044;-82
2022/04/29 03:15:42;;;;;;;15.07;6.70;;;5.70;99.90;;;;;;4999953;28;20133;-83
2022/04/29 03:18:23;;;;;;;17.55;6.60;;;5.70;99.90;;;;;;5016671;28;20124;-84
2022/04/29 03:20:53;;;;;;;14.85;6.82;;;5.70;99.90;;;;;;5016026;28;20125;-84
2022/04/29 03:23:18;;;;;;;14.05;6.43;;;5.80;99.90;;;;;;5016354;28;20046;-83
2022/04/29 03:25:44;;;;;;;15.45;7.22;;;5.70;99.90;;;;;;5017540;28;20099;-83
2022/04/29 03:28:10;;;;;;;16.73;6.22;;;5.70;99.90;;;;;;5016451;28;20045;-83
2022/04/29 03:30:36;;;;;;;12.10;6.43;;;5.70;99.90;;;;;;5000065;28;20041;-82
2022/04/29 03:33:06;;;;;;;15.77;7.07;;;5.70;99.90;;;;;;5016339;28;20049;-82
2022/04/29 03:35:37;;;;;;;15.27;6.35;;;5.70;99.90;;;;;;5016157;28;20195;-84
2022/04/29 03:38:02;;;;;;;10.98;5.97;;;5.70;99.90;;;;;;5015971;28;20067;-82
2022/04/29 03:40:28;;;;;;;13.93;6.60;;;5.70;99.90;;;;;;5015522;28;20119;-84
2022/04/29 03:42:56;;;;;;;9.23;5.68;;;5.70;99.90;;;;;;5015970;28;20042;-82
2022/04/29 03:45:24;;;;;;;13.43;6.07;;;5.70;99.90;;;;;;5015788;28;20092;-84
2022/04/29 03:47:50;;;;;;;12.07;5.80;;;5.70;99.90;;;;;;5015758;28;20038;-83
2022/04/29 03:50:16;;;;;;;14.88;6.20;;;5.60;99.90;;;;;;5015845;28;20103;-84
2022/04/29 03:52:50;;;;;;;9.45;6.00;;;5.60;99.90;;;;;;5016005;28;20528;-83
2022/04/29 03:55:18;;;;;;;14.93;6.55;;;5.70;99.90;;;;;;5015546;28;20052;-84
2022/04/29 03:57:43;;;;;;;13.68;6.45;;;5.70;99.90;;;;;;4999445;28;20050;-82
2022/04/29 04:00:10;;;;;;;20.63;7.10;;;5.70;99.90;;;;;;4999151;28;20042;-83
2022/04/29 04:02:36;;;;;;;15.95;6.75;;;5.70;99.90;;;;;;5014505;28;20548;-82
2022/04/29 04:05:02;;;;;;;14.30;6.80;;;5.70;99.90;;;;;;5015641;28;20042;-83
2022/04/29 04:07:27;;;;;;;13.30;6.55;;;5.60;99.90;;;;;;5015741;28;20042;-82
2022/04/29 04:09:53;;;;;;;16.10;6.90;;;5.60;99.90;;;;;;5015177;28;20041;-82
2022/04/29 04:12:20;;;;;;;14.35;6.78;;;5.60;99.90;;;;;;4999103;28;20073;-83
2022/04/29 04:14:45;;;;;;;12.93;6.90;;;5.60;99.90;;;;;;5015400;28;20041;-84
2022/04/29 04:17:11;;;;;;;15.15;7.30;;;5.50;99.90;;;;;;5015296;28;20107;-85
2022/04/29 04:19:37;;;;;;;17.23;7.65;;;5.60;99.90;;;;;;5015233;28;20038;-85
2022/04/29 04:22:03;;;;;;;15.02;7.20;;;5.60;99.90;;;;;;5015441;28;20078;-82
2022/04/29 04:24:29;;;;;;;14.05;6.82;;;5.60;99.90;;;;;;5015318;28;20382;-82
2022/04/29 04:26:55;;;;;;;15.10;6.70;;;5.70;99.90;;;;;;5015438;28;20081;-84
2022/04/29 04:29:21;;;;;;;17.20;6.70;;;5.70;99.90;;;;;;5015143;28;20131;-84
2022/04/29 04:31:47;;;;;;;17.13;7.25;;;5.70;99.90;;;;;;5014971;28;20045;-81
2022/04/29 04:36:57;;;;;;;13.02;6.85;;;5.80;99.90;;;;;;5015279;28;20050;-83
2022/04/29 04:39:23;;;;;;;13.00;6.68;;;5.80;99.90;;;;;;5014417;28;20052;-83
2022/04/29 04:41:48;;;;;;;13.52;6.60;;;5.80;99.90;;;;;;5014851;28;20042;-84
2022/04/29 04:44:14;;;;;;;16.92;6.72;;;5.90;99.90;;;;;;4998564;28;20124;-83
2022/04/29 04:46:40;;;;;;;13.25;6.90;;;5.90;99.90;;;;;;5014990;28;20038;-83
2022/04/29 04:49:06;;;;;;;15.13;6.90;;;6.00;99.90;;;;;;5014784;28;20065;-84
2022/04/29 04:51:32;;;;;;;25.33;8.55;;;6.00;99.90;;;;;;5016005;28;20034;-83
2022/04/29 04:53:58;;;;;;;13.80;6.30;;;6.00;99.90;;;;;;5016451;28;20099;-82
2022/04/29 04:56:24;;;;;;;12.75;6.50;;;6.00;99.90;;;;;;5014687;28;20042;-84
2022/04/29 04:58:50;;;;;;;17.67;6.40;;;6.00;99.90;;;;;;5015028;28;20045;-82
2022/04/29 05:01:15;;;;;;;15.38;6.80;;;6.00;99.90;;;;;;5015672;28;20038;-82
2022/04/29 05:03:43;;;;;;;18.33;6.60;;;6.10;99.90;;;;;;5014437;28;20069;-83
2022/04/29 05:06:08;;;;;;;14.35;6.88;;;6.10;99.90;;;;;;4997826;28;20096;-83
2022/04/29 05:08:34;;;;;;;11.85;6.78;;;6.20;99.90;;;;;;5014617;28;20424;-83
2022/04/29 05:10:59;;;;;;;18.02;7.57;;;6.20;99.90;;;;;;4998025;28;20038;-85
2022/04/29 05:13:25;;;;;;;14.55;7.18;;;6.20;99.90;;;;;;5014239;28;20095;-83
2022/04/29 05:15:51;;;;;;;15.45;7.10;;;6.20;99.90;;;;;;5013581;28;20474;-82
2022/04/29 05:18:17;;;;;;;13.02;7.20;;;6.30;99.90;;;;;;5015454;28;20069;-85
2022/04/29 05:20:42;;;;;;;16.10;7.38;;;6.30;99.90;;;;;;5015332;28;20482;-84
2022/04/29 05:23:08;;;;;;;15.70;7.03;;;6.30;99.90;;;;;;5014255;28;20120;-83
2022/04/29 05:25:34;;;;;;;17.80;7.78;;;6.40;99.90;;;;;;5014079;28;20076;-83
2022/04/29 05:28:01;;;;;;;15.10;7.38;;;6.50;99.90;;;;;;5013579;28;20041;-84
2022/04/29 05:30:27;;;;;;;16.23;6.50;;;6.50;99.90;;;;;;5013955;28;20104;-85
2022/04/29 05:32:53;;;;;;;14.32;7.20;;;6.50;99.90;;;;;;4997474;28;20041;-84
2022/04/29 05:35:27;;;;;;;;;;;6.60;99.90;;;;;;5133193;27;20379;-85
2022/04/29 05:37:53;;;;;;;13.82;7.28;;;6.60;99.90;;;;;;5131489;28;20344;-84
2022/04/29 05:43:03;;;;;;;11.90;6.28;;;6.70;99.90;;;;;;5131319;28;20044;-85
2022/04/29 05:45:29;;;;;;;15.50;6.30;;;6.80;99.90;;;;;;5132398;27;20043;-84
2022/04/29 05:47:54;;;;;;;19.77;7.43;;;6.80;99.90;;;;;;5114156;28;20081;-84
2022/04/29 05:50:20;;;;;;;12.63;6.60;;;6.90;99.90;;;;;;5130805;28;20485;-85
2022/04/29 05:52:46;;;;;;;15.48;6.75;;;6.90;99.90;;;;;;5131052;28;20032;-84
2022/04/29 05:55:13;;;;;;;16.90;6.70;;;7.00;99.90;;;;;;5130515;28;20042;-83
2022/04/29 05:57:39;;;;;;;13.98;6.65;;;7.00;99.90;;;;;;5131530;28;20051;-84
2022/04/29 06:00:05;;;;;;;13.80;7.32;;;7.00;99.90;;;;;;5113794;28;20390;-81
2022/04/29 06:02:33;;;;;;;12.13;6.97;;;7.10;99.90;;;;;;5130191;28;20042;-84
2022/04/29 06:05:01;;;;;;;14.05;6.38;;;7.10;99.90;;;;;;5131063;28;20069;-83
2022/04/29 06:07:27;;;;;;;12.90;6.38;;;7.20;99.90;;;;;;5130662;28;20491;-82
2022/04/29 06:09:52;;;;;;;13.45;6.38;;;7.20;99.90;;;;;;5130534;28;20073;-83
2022/04/29 06:12:18;;;;;;;14.02;6.55;;;7.30;99.90;;;;;;5130684;28;20141;-86
2022/04/29 06:14:45;;;;;;;12.90;5.80;;;7.40;99.90;;;;;;5130483;28;20103;-83
2022/04/29 06:17:12;;;;;;;12.85;6.53;;;7.40;99.90;;;;;;5130565;28;20040;-83
2022/04/29 06:19:38;;;;;;;16.25;6.70;;;7.50;99.90;;;;;;5129993;28;20031;-80
2022/04/29 06:22:04;;;;;;;14.70;6.95;;;7.50;99.90;;;;;;5131304;27;20190;-81
2022/04/29 06:24:30;;;;;;;12.27;6.78;;;7.60;99.90;;;;;;5131082;27;20047;-83
2022/04/29 06:26:56;;;;;;;14.00;6.53;;;7.70;99.90;;;;;;5130315;28;20518;-87
2022/04/29 06:29:22;;;;;;;11.55;6.35;;;7.80;99.90;;;;;;5130821;28;20074;-85
2022/04/29 06:31:48;;;;;;;13.73;6.03;;;7.80;99.90;;;;;;5129908;28;20047;-85
2022/04/29 06:34:13;;;;;;;16.00;6.80;;;7.80;99.90;;;;;;5129930;28;20050;-85
2022/04/29 06:36:39;;;;;;;12.57;6.28;;;7.90;99.90;;;;;;5130259;28;20040;-85
2022/04/29 06:39:04;;;;;;;14.10;6.93;;;8.00;99.90;;;;;;5131228;28;20115;-84
2022/04/29 06:41:30;;;;;;;14.15;6.13;;;8.00;99.90;;;;;;5129674;28;20403;-85
2022/04/29 06:43:56;;;;;;;11.40;6.30;;;8.00;99.90;;;;;;5130078;28;20050;-82
2022/04/29 06:46:24;;;;;;;11.50;6.25;;;8.10;99.90;;;;;;5118611;28;20490;-81
2022/04/29 06:48:52;;;;;;;12.73;6.60;;;8.20;99.90;;;;;;5116149;28;20071;-82
2022/04/29 06:51:18;;;;;;;12.95;7.03;;;8.20;99.90;;;;;;5115997;28;20048;-80
2022/04/29 06:53:43;;;;;;;16.23;6.32;;;8.30;99.90;;;;;;5115628;28;20097;-85
2022/04/29 06:56:09;;;;;;;14.57;6.68;;;8.30;99.90;;;;;;5098945;28;20482;-82
2022/04/29 06:58:35;;;;;;;14.57;6.30;;;8.40;99.90;;;;;;5116135;28;20041;-81
2022/04/29 07:01:00;;;;;;;12.95;6.40;;;8.50;99.90;;;;;;5115369;28;20544;-84
2022/04/29 07:03:26;;;;;;;11.57;6.13;;;8.60;99.90;;;;;;5116341;28;20071;-83
2022/04/29 07:05:54;;;;;;;11.35;6.15;;;8.60;99.90;;;;;;5117048;28;20474;-84
2022/04/29 07:08:21;;;;;;;15.68;6.32;;;8.70;99.90;;;;;;5115716;28;20063;-82
2022/04/29 07:10:47;;;;;;;12.90;6.00;;;8.70;99.90;;;;;;5115770;28;20092;-83
2022/04/29 07:13:13;;;;;;;9.52;6.25;;;8.80;99.90;;;;;;5117023;28;20035;-82
2022/04/29 07:15:43;;;;;;;10.43;6.13;;;8.90;99.90;;;;;;5118006;28;20039;-81
2022/04/29 07:18:12;;;;;;;18.23;6.72;;;8.90;99.90;;;;;;5105698;28;20039;-80
2022/04/29 07:20:38;;;;;;;12.15;5.57;;;9.00;99.90;;;;;;5123220;28;20084;-80
2022/04/29 07:23:04;;;;;;;11.77;6.80;;;9.00;99.90;;;;;;5120242;28;20067;-81
2022/04/29 07:25:30;;;;;;;12.45;6.05;;;9.00;99.90;;;;;;5115779;28;20043;-84
2022/04/29 07:27:55;;;;;;;13.52;6.88;;;9.00;99.90;;;;;;5114654;28;20039;-83
2022/04/29 07:30:21;;;;;;;13.80;6.60;;;9.10;99.90;;;;;;5114693;28;20038;-84
2022/04/29 07:32:47;;;;;;;11.50;5.93;;;9.10;99.90;;;;;;5114564;28;20053;-84
2022/04/29 07:43:26;;;;;;;11.73;5.50;;;9.60;99.90;;;;;;5115823;28;20047;-82
2022/04/29 07:45:52;;;;;;;8.60;5.13;;;9.70;99.90;;;;;;5097206;28;20043;-84
2022/04/29 07:48:19;;;;;;;12.88;5.55;;;9.80;99.90;;;;;;5114486;28;20078;-83
2022/04/29 07:50:44;;;;;;;11.68;5.55;;;9.90;99.90;;;;;;5115547;28;20086;-84
2022/04/29 07:53:10;;;;;;;12.40;5.72;;;10.00;99.90;;;;;;5114439;28;20044;-81
2022/04/29 07:55:36;;;;;;;10.63;4.95;;;10.10;99.90;;;;;;5114177;28;20036;-83
2022/04/29 07:58:03;;;;;;;8.00;5.15;;;10.10;99.90;;;;;;5113276;28;20036;-84
2022/04/29 08:00:31;;;;;;;9.75;5.40;;;10.20;99.90;;;;;;5113788;28;20046;-82
2022/04/29 08:02:57;;;;;;;10.20;4.93;;;10.30;99.90;;;;;;5114153;28;20372;-83
2022/04/29 08:05:22;;;;;;;7.90;4.93;;;10.50;99.90;;;;;;5113870;28;20046;-84
2022/04/29 08:07:48;;;;;;;9.57;5.00;;;10.60;99.90;;;;;;5115468;28;20043;-82
2022/04/29 08:10:14;;;;;;;11.90;5.63;;;10.70;99.90;;;;;;5114083;28;20047;-83
2022/04/29 08:12:39;;;;;;;8.68;4.55;;;10.80;99.90;;;;;;5113994;28;20049;-83
2022/04/29 08:15:06;;;;;;;9.43;4.75;;;10.80;99.90;;;;;;5113843;28;20078;-82
2022/04/29 08:17:32;;;;;;;11.57;4.28;;;10.80;99.90;;;;;;5113921;28;20493;-81
2022/04/29 08:19:58;;;;;;;8.85;4.20;;;10.90;99.90;;;;;;5115254;28;20085;-83
2022/04/29 08:22:24;;;;;;;8.75;4.35;;;10.90;99.90;;;;;;5114916;28;20083;-82
2022/04/29 08:24:50;;;;;;;9.15;4.30;;;11.00;99.90;;;;;;5113619;28;20055;-81
2022/04/29 08:27:15;;;;;;;8.98;3.85;;;11.10;99.90;;;;;;5113525;28;20040;-84
2022/04/29 08:29:41;;;;;;;9.25;5.10;;;11.20;99.90;;;;;;5114713;27;20036;-83
2022/04/29 08:32:07;;;;;;;7.97;4.38;;;11.30;99.90;;;;;;5096253;28;20075;-82
2022/04/29 08:34:36;;;;;;;10.90;4.43;;;11.40;99.90;;;;;;5113168;28;20039;-85
2022/04/29 08:37:03;;;;;;;10.07;4.43;;;11.40;99.90;;;;;;5111678;28;20132;-82
2022/04/29 08:39:30;;;;;;;6.13;4.40;;;11.40;99.90;;;;;;5113346;28;20035;-84
2022/04/29 08:42:00;;;;;;;6.97;4.07;;;11.40;99.90;;;;;;5113081;28;20050;-85
2022/04/29 08:44:29;;;;;;;7.05;4.57;;;11.40;99.90;;;;;;5114234;28;20035;-85
2022/04/29 08:46:56;;;;;;;7.57;3.65;;;11.40;99.90;;;;;;5112106;28;20054;-83
2022/04/29 08:49:24;;;;;;;7.82;3.72;;;11.50;99.90;;;;;;5110176;28;20038;-85
2022/04/29 08:51:50;;;;;;;10.48;4.75;;;11.70;99.90;;;;;;5112171;28;20156;-85
2022/04/29 08:58:36;;;;;;;6.47;4.00;;;11.90;99.90;;;;;;5112646;28;20036;-85
2022/04/29 08:59:57;;;;;;;10.40;3.70;;;12.00;99.90;;;;;;5112723;28;20044;-84
2022/04/29 09:02:22;;;;;;;9.20;3.83;;;11.90;99.90;;;;;;5112759;28;20035;-84
2022/04/29 09:04:49;;;;;;;8.07;4.10;;;11.90;99.90;;;;;;5112842;28;20054;-83
2022/04/29 09:07:15;;;;;;;15.63;4.10;;;11.80;99.90;;;;;;5113962;28;20410;-85
2022/04/29 09:09:41;;;;;;;9.98;4.28;;;11.70;99.90;;;;;;5112544;28;20110;-84
2022/04/29 09:12:17;;;;;;;7.78;3.72;;;11.60;99.90;;;;;;5112078;28;20514;-83
2022/04/29 09:14:43;;;;;;;7.88;3.67;;;11.60;99.90;;;;;;5112184;28;20078;-83
2022/04/29 09:17:28;;;;;;;7.18;3.38;;;11.60;99.90;;;;;;5111763;28;20047;-84
2022/04/29 09:19:54;;;;;;;8.65;3.45;;;11.50;99.90;;;;;;5095888;28;20039;-82
2022/04/29 09:22:19;;;;;;;8.57;3.70;;;11.60;99.90;;;;;;5112345;28;20032;-83
2022/04/29 09:25:03;;;;;;;7.30;3.75;;;11.50;99.90;;;;;;5095962;28;20043;-84
2022/04/29 09:27:28;;;;;;;7.53;3.17;;;11.50;99.90;;;;;;5112937;28;20055;-82
2022/04/29 09:30:01;;;;;;;7.20;3.50;;;11.40;99.90;;;;;;5112971;28;20387;-83
2022/04/29 09:32:48;;;;;;;6.75;3.05;;;11.50;99.90;;;;;;5113974;28;20031;-82
2022/04/29 09:35:13;;;;;;;8.95;3.50;;;11.50;99.90;;;;;;5112772;28;20044;-83
2022/04/29 09:39:26;;;;;;;8.05;3.45;;;11.50;99.90;;;;;;5112384;28;20039;-81
2022/04/29 09:40:47;;;;;;;6.50;2.97;;;11.60;99.90;;;;;;5112967;28;20048;-82
2022/04/29 09:43:13;;;;;;;6.45;3.03;;;11.50;99.90;;;;;;5095591;28;20116;-82
2022/04/29 09:45:39;;;;;;;7.00;3.20;;;11.50;99.90;;;;;;5113833;28;20432;-82
2022/04/29 09:48:09;;;;;;;7.65;3.30;;;11.60;99.90;;;;;;5112378;28;20046;-82
2022/04/29 09:50:50;;;;;;;7.50;3.30;;;11.60;99.90;;;;;;5113095;28;20490;-83
2022/04/29 09:53:26;;;;;;;12.48;3.22;;;11.60;99.90;;;;;;5095626;28;20071;-83
2022/04/29 09:56:09;;;;;;;6.45;2.78;;;11.60;99.90;;;;;;5112445;28;20340;-81
2022/04/29 09:58:35;;;;;;;6.50;2.90;;;11.70;99.90;;;;;;5112951;28;20115;-82
2022/04/29 10:01:03;;;;;;;5.78;2.60;;;11.70;99.90;;;;;;5111992;28;20071;-82
2022/04/29 10:03:30;;;;;;;6.63;2.95;;;11.80;99.90;;;;;;5095422;28;20086;-84
2022/04/29 10:05:57;;;;;;;7.50;3.00;;;11.80;99.90;;;;;;5095556;28;20040;-82
2022/04/29 10:08:25;;;;;;;5.45;2.70;;;11.80;99.90;;;;;;5113487;28;20043;-83
2022/04/29 10:10:52;;;;;;;7.10;2.83;;;11.90;99.90;;;;;;5112651;28;20044;-83
2022/04/29 10:13:21;;;;;;;5.25;2.47;;;11.90;99.90;;;;;;5112519;28;20043;-83
2022/04/29 10:15:47;;;;;;;5.22;2.50;;;12.00;99.90;;;;;;5113382;28;20105;-83
2022/04/29 10:21:15;;;;;;;5.35;2.80;;;12.00;99.90;;;;;;5114002;28;20126;-84
2022/04/29 10:23:48;;;;;;;5.45;2.85;;;11.90;99.90;;;;;;5115940;28;20051;-83
2022/04/29 10:26:18;;;;;;;6.15;3.10;;;11.90;99.90;;;;;;5115534;28;20052;-84
2022/04/29 10:28:45;;;;;;;6.57;2.88;;;11.80;99.90;;;;;;5116459;28;20046;-84
2022/04/29 10:31:17;;;;;;;9.65;3.65;;;11.80;99.90;;;;;;5099570;28;20062;-85
2022/04/29 10:33:42;;;;;;;5.90;3.30;;;11.80;99.90;;;;;;5116047;28;20191;-82
2022/04/29 10:36:10;;;;;;;8.98;3.65;;;11.70;99.90;;;;;;5116125;28;20040;-82
2022/04/29 10:38:39;;;;;;;9.35;3.22;;;11.60;99.90;;;;;;5116111;28;20050;-83
2022/04/29 10:41:25;;;;;;;6.63;3.47;;;11.50;99.90;;;;;;5116287;28;20035;-83
2022/04/29 10:43:50;;;;;;;6.78;3.03;;;11.40;99.90;;;;;;5116930;27;20048;-82
2022/04/29 10:46:20;;;;;;;7.15;3.72;;;11.40;99.90;;;;;;5116164;28;20494;-84
2022/04/29 10:48:46;;;;;;;8.05;4.47;;;11.40;99.90;;;;;;5094811;28;20044;-82
2022/04/29 10:51:25;;;;;;;8.35;3.65;;;11.50;99.90;;;;;;5095823;28;20134;-81
2022/04/29 10:53:56;;;;;;;5.88;3.40;;;11.50;99.90;;;;;;5095503;28;20496;-83
2022/04/29 10:56:31;;;;;;;5.70;3.13;;;11.50;99.90;;;;;;5095194;28;20101;-81
2022/04/29 10:59:09;;;;;;;10.43;3.53;;;11.50;99.90;;;;;;5078731;28;20036;-82
2022/04/29 11:01:36;;;;;;;4.75;2.85;;;11.60;99.90;;;;;;5095448;28;20047;-81
2022/04/29 11:04:17;;;;;;;5.80;3.10;;;11.60;99.90;;;;;;5095169;28;20548;-82
2022/04/29 11:06:46;;;;;;;9.05;3.20;;;11.70;99.90;;;;;;5094941;28;20055;-81
2022/04/29 11:09:31;;;;;;;9.45;3.15;;;11.90;99.90;;;;;;5078270;28;20040;-83
2022/04/29 11:11:58;;;;;;;7.70;3.50;;;12.10;99.90;;;;;;5094780;28;20040;-81
2022/04/29 11:14:24;;;;;;;6.50;3.00;;;12.10;99.90;;;;;;5094466;28;20056;-83
2022/04/29 11:16:53;;;;;;;6.22;3.00;;;12.20;99.90;;;;;;5094902;28;20392;-83
2022/04/29 11:19:21;;;;;;;9.52;4.15;;;12.30;99.90;;;;;;5094631;28;20510;-83
2022/04/29 11:24:51;;;;;;;8.43;3.58;;;12.20;99.90;;;;;;5094131;28;20476;-81
2022/04/29 11:27:28;;;;;;;8.48;3.85;;;12.20;99.90;;;;;;5094245;28;20131;-82
2022/04/29 11:29:56;;;;;;;6.22;3.85;;;12.20;99.90;;;;;;5095598;28;20036;-82
2022/04/29 11:32:26;;;;;;;7.35;3.97;;;12.30;99.90;;;;;;5094172;28;20047;-81
2022/04/29 11:34:52;;;;;;;8.30;3.90;;;12.40;99.90;;;;;;5094070;28;20395;-81
2022/04/29 11:37:26;;;;;;;6.47;3.88;;;12.40;99.90;;;;;;5094129;28;20483;-83
2022/04/29 11:39:52;;;;;;;6.75;3.92;;;12.30;99.90;;;;;;5094099;28;20400;-85
2022/04/29 11:42:18;;;;;;;6.45;3.60;;;12.30;99.90;;;;;;5093051;28;20043;-82
2022/04/29 11:44:45;;;;;;;8.15;4.18;;;12.30;99.90;;;;;;5113420;28;20058;-83
2022/04/29 11:47:12;;;;;;;10.18;4.60;;;12.30;99.90;;;;;;5114473;28;20462;-84
2022/04/29 11:49:38;;;;;;;10.32;4.57;;;12.40;99.90;;;;;;5114575;28;20043;-83
2022/04/29 11:52:30;;;;;;;8.02;3.90;;;12.40;99.90;;;;;;5115061;28;20066;-84
2022/04/29 11:54:56;;;;;;;7.65;3.72;;;12.50;99.90;;;;;;5099503;28;20043;-79
2022/04/29 11:57:23;;;;;;;7.13;4.00;;;12.60;99.90;;;;;;5123729;28;20036;-79
2022/04/29 11:59:49;;;;;;;8.73;4.90;;;12.80;99.90;;;;;;5103144;28;20043;-82
2022/04/29 12:02:20;;;;;;;5.60;3.90;;;12.90;99.90;;;;;;5114716;28;20066;-80
2022/04/29 12:05:03;;;;;;;8.95;4.32;;;12.90;99.90;;;;;;5097957;28;20052;-82
2022/04/29 12:07:41;;;;;;;8.00;4.57;;;13.00;99.90;;;;;;5113138;28;20054;-83
2022/04/29 12:10:26;;;;;;;7.90;4.38;;;12.90;99.90;;;;;;5114105;28;20043;-80
2022/04/29 12:13:05;;;;;;;8.02;4.25;;;12.90;99.90;;;;;;5114372;28;20502;-83
2022/04/29 12:15:32;;;;;;;8.85;4.47;;;12.90;99.90;;;;;;5115578;28;20483;-85
2022/04/29 12:18:00;;;;;;;5.68;3.67;;;12.90;99.90;;;;;;5115280;28;20436;-85
2022/04/29 12:20:26;;;;;;;7.80;3.83;;;12.90;99.90;;;;;;5114577;28;20044;-81
2022/04/29 12:22:52;;;;;;;9.45;4.00;;;13.00;99.90;;;;;;5115935;28;20106;-82
2022/04/29 12:25:22;;;;;;;10.88;4.35;;;12.90;99.90;;;;;;5114299;28;20517;-83
2022/04/29 12:28:19;;;;;;;8.32;3.92;;;12.90;99.90;;;;;;5114085;28;20048;-85
2022/04/29 12:36:54;;;;;;;7.25;4.32;;;13.00;99.90;;;;;;5113710;28;20035;-85
2022/04/29 12:39:25;;;;;;;8.85;3.80;;;13.00;99.90;;;;;;5113899;28;20416;-83
2022/04/29 12:42:05;;;;;;;7.18;3.60;;;13.10;99.90;;;;;;5113370;28;20483;-82
2022/04/29 12:47:41;;;;;;;8.50;3.95;;;13.20;99.90;;;;;;5114311;28;20044;-82
2022/04/29 12:50:20;;;;;;;9.23;3.40;;;13.10;99.90;;;;;;5113703;28;20122;-82
2022/04/29 12:52:57;;;;;;;5.50;3.63;;;13.20;99.90;;;;;;5114867;28;20066;-83
2022/04/29 12:55:23;;;;;;;7.75;4.03;;;13.30;99.90;;;;;;5114704;28;20039;-83
2022/04/29 12:57:49;;;;;;;8.00;3.60;;;13.40;99.90;;;;;;5113431;28;20075;-82
2022/04/29 13:00:23;;;;;;;7.75;4.03;;;13.50;99.90;;;;;;5113352;28;20040;-83
2022/04/29 13:03:04;;;;;;;7.95;3.97;;;13.60;99.90;;;;;;5095053;28;20047;-83
2022/04/29 13:05:30;;;;;;;8.43;4.07;;;13.60;99.90;;;;;;5112252;28;20089;-83
2022/04/29 13:07:56;;;;;;;8.77;4.45;;;13.80;99.90;;;;;;5113156;28;20085;-83
2022/04/29 13:10:22;;;;;;;8.55;4.55;;;14.00;99.90;;;;;;5112732;28;20043;-84
2022/04/29 13:12:48;;;;;;;7.32;4.20;;;14.20;99.90;;;;;;5114444;28;20123;-84
2022/04/29 13:15:15;;;;;;;10.85;4.10;;;14.30;99.90;;;;;;5095973;28;20122;-83
2022/04/29 13:17:41;;;;;;;8.82;3.78;;;14.40;99.90;;;;;;5112876;28;20039;-84
2022/04/29 13:20:08;;;;;;;6.13;4.05;;;14.50;99.90;;;;;;5095881;28;20062;-83
2022/04/29 13:22:38;;;;;;;7.45;3.90;;;14.50;99.90;;;;;;5112722;28;20088;-81
2022/04/29 13:25:06;;;;;;;5.60;3.70;;;14.60;99.90;;;;;;5113039;28;20043;-83
2022/04/29 13:27:32;;;;;;;6.43;3.38;;;14.80;99.90;;;;;;5113054;28;20047;-83
2022/04/29 13:29:58;;;;;;;7.13;3.13;;;14.80;99.90;;;;;;5095946;28;20044;-83
2022/04/29 13:32:24;;;;;;;5.90;3.55;;;14.90;99.90;;;;;;5095616;28;20048;-84
2022/04/29 13:34:53;;;;;;;7.00;3.45;;;15.00;99.90;;;;;;5112450;28;20043;-82
2022/04/29 13:37:21;;;;;;;6.03;3.20;;;14.90;99.90;;;;;;5112430;28;20495;-85
2022/04/29 13:39:47;;;;;;;6.30;3.60;;;14.60;99.90;;;;;;5096017;28;20042;-83
2022/04/29 13:42:16;;;;;;;7.78;3.50;;;14.50;99.90;;;;;;5113702;28;20035;-84
2022/04/29 13:44:42;;;;;;;8.05;3.35;;;14.30;99.90;;;;;;5113032;28;20376;-82
2022/04/29 13:47:08;;;;;;;5.68;3.33;;;14.30;99.90;;;;;;5095857;28;20051;-84
2022/04/29 13:49:34;;;;;;;6.53;2.90;;;14.30;99.90;;;;;;5113058;28;20039;-83
2022/04/29 13:53:07;;;;;;;4.65;2.83;;;14.10;99.90;;;;;;5113653;28;20064;-84
2022/04/29 13:54:45;;;;;;;5.95;3.42;;;14.00;99.90;;;;;;5113502;28;20098;-83
2022/04/29 13:57:11;;;;;;;6.78;3.05;;;14.00;99.90;;;;;;5117320;28;20067;-85
2022/04/29 13:59:36;;;;;;;6.88;3.20;;;14.00;99.90;;;;;;5115372;28;20040;-82
2022/04/29 14:02:03;;;;;;;6.00;2.95;;;13.90;99.90;;;;;;5096153;28;20032;-83
2022/04/29 14:04:28;;;;;;;7.10;3.03;;;13.90;99.90;;;;;;5097063;28;20043;-83
2022/04/29 14:06:54;;;;;;;7.80;3.20;;;13.80;99.90;;;;;;5096752;28;20044;-84
2022/04/29 14:09:19;;;;;;;6.07;2.88;;;13.80;99.90;;;;;;5096487;28;20036;-81
2022/04/29 14:11:45;;;;;;;4.80;2.83;;;13.80;99.90;;;;;;5116021;28;20051;-83
2022/04/29 14:14:11;;;;;;;7.75;3.10;;;13.90;99.90;;;;;;5103757;28;20048;-83
2022/04/29 14:16:36;;;;;;;5.22;2.78;;;13.80;99.90;;;;;;5096998;28;20040;-84
2022/04/29 14:19:02;;;;;;;5.18;2.80;;;13.70;99.90;;;;;;5098070;28;20076;-82
2022/04/29 14:21:28;;;;;;;6.00;3.05;;;13.70;99.90;;;;;;5096647;28;20115;-84
2022/04/29 14:23:53;;;;;;;6.53;2.58;;;13.70;99.90;;;;;;5098005;28;20066;-81
2022/04/29 14:26:19;;;;;;;7.95;2.70;;;13.70;99.90;;;;;;5096517;28;20395;-83
2022/04/29 14:28:45;;;;;;;5.80;3.03;;;13.70;99.90;;;;;;5079434;28;20083;-81
2022/04/29 14:31:11;;;;;;;6.65;2.75;;;13.70;99.90;;;;;;5096097;28;20054;-82
2022/04/29 14:33:38;;;;;;;6.55;3.13;;;13.80;99.90;;;;;;5097516;28;20090;-84
2022/04/29 14:36:05;;;;;;;5.72;2.47;;;13.80;99.90;;;;;;5079729;28;20097;-81
2022/04/29 14:38:31;;;;;;;4.20;2.85;;;13.80;99.90;;;;;;5096588;28;20131;-83
2022/04/29 14:40:57;;;;;;;6.60;2.90;;;13.80;99.90;;;;;;5096312;28;20040;-83
2022/04/29 14:43:23;;;;;;;7.18;2.80;;;13.60;99.90;;;;;;5096013;28;20044;-83
2022/04/29 14:45:49;;;;;;;6.22;2.95;;;13.60;99.90;;;;;;5096831;28;20048;-83
2022/04/29 14:48:14;;;;;;;5.68;2.70;;;13.60;99.90;;;;;;5096342;28;20016;-81
2022/04/29 14:50:40;;;;;;;10.63;2.72;;;13.50;99.90;;;;;;5096102;28;20040;-82
2022/04/29 14:53:06;;;;;;;6.75;2.70;;;13.50;99.90;;;;;;5095649;28;20090;-83
2022/04/29 14:55:31;;;;;;;6.03;2.70;;;13.30;99.90;;;;;;5113998;28;20047;-82
2022/04/29 14:57:57;;;;;;;5.00;2.90;;;13.20;99.90;;;;;;5116461;28;20118;-83
2022/04/29 15:00:22;;;;;;;5.68;2.90;;;13.20;99.90;;;;;;5116538;28;20122;-83
2022/04/29 15:02:48;;;;;;;5.65;2.90;;;13.10;99.90;;;;;;5099340;28;20082;-83
2022/04/29 15:05:15;;;;;;;6.78;2.90;;;13.10;99.90;;;;;;5116318;28;20104;-83
2022/04/29 15:07:41;;;;;;;5.78;2.85;;;13.00;99.90;;;;;;5110426;28;20464;-83
2022/04/29 15:15:42;;;;;;;5.38;3.20;;;12.80;99.90;;;;;;5097073;28;20127;-84
2022/04/29 15:18:10;;;;;;;5.78;3.08;;;12.60;99.90;;;;;;5095887;28;20032;-84
2022/04/29 15:20:37;;;;;;;6.10;3.60;;;12.60;99.90;;;;;;5096055;28;20089;-82
2022/04/29 15:23:03;;;;;;;7.57;4.10;;;12.50;99.90;;;;;;5095699;28;20105;-82
2022/04/29 15:25:30;;;;;;;7.22;3.60;;;12.40;99.90;;;;;;5096074;28;20039;-84
2022/04/29 15:27:55;;;;;;;10.90;3.60;;;12.40;99.90;;;;;;5078435;28;20047;-83
2022/04/29 15:30:21;;;;;;;9.88;3.58;;;12.50;99.90;;;;;;5095600;28;20400;-83
2022/04/29 15:32:47;;;;;;;11.50;4.03;;;12.50;99.90;;;;;;5094843;28;20438;-82
2022/04/29 15:35:13;;;;;;;7.10;3.25;;;12.50;99.90;;;;;;5094749;28;20044;-83
2022/04/29 15:37:38;;;;;;;7.90;3.90;;;12.60;99.90;;;;;;5095390;28;20063;-81
2022/04/29 15:40:05;;;;;;;6.75;3.65;;;12.60;99.90;;;;;;5096364;28;20036;-82
2022/04/29 15:42:30;;;;;;;10.15;4.25;;;12.50;99.90;;;;;;5095568;28;20032;-83
2022/04/29 15:45:05;;;;;;;7.97;4.32;;;12.40;99.90;;;;;;5095054;28;20044;-82
2022/04/29 15:47:30;;;;;;;9.40;4.43;;;12.30;99.90;;;;;;5096792;28;20043;-83
2022/04/29 15:49:56;;;;;;;8.60;4.60;;;12.30;99.90;;;;;;5095113;28;20357;-81
2022/04/29 15:52:21;;;;;;;14.63;4.53;;;12.20;99.90;;;;;;5095064;28;20048;-83
2022/04/29 15:54:47;;;;;;;7.85;4.45;;;12.30;99.90;;;;;;5095064;28;20036;-82
2022/04/29 15:57:13;;;;;;;9.57;4.38;;;12.20;99.90;;;;;;5078019;28;20385;-81
2022/04/29 15:59:38;;;;;;;12.55;5.15;;;12.20;99.90;;;;;;5094564;28;20044;-82
2022/04/29 16:02:04;;;;;;;10.43;4.43;;;12.20;99.90;;;;;;5094504;28;20032;-82
2022/04/29 16:04:29;;;;;;;9.70;3.88;;;12.30;99.90;;;;;;5095840;28;20455;-84
2022/04/29 16:06:55;;;;;;;8.85;4.30;;;12.50;99.90;;;;;;5094628;28;20149;-83
2022/04/29 16:09:22;;;;;;;10.88;4.70;;;13.00;99.90;;;;;;5077421;28;20092;-85
2022/04/29 16:11:47;;;;;;;8.80;4.20;;;13.30;99.90;;;;;;5095407;28;20483;-81
2022/04/29 16:14:13;;;;;;;9.80;4.47;;;13.60;99.90;;;;;;5094702;28;20042;-83
2022/04/29 16:16:41;;;;;;;8.25;4.47;;;13.60;99.90;;;;;;5094485;28;20127;-82
2022/04/29 16:21:52;;;;;;;12.07;4.80;;;13.50;99.90;;;;;;5094731;28;20119;-84
2022/04/29 16:27:02;;;;;;;10.40;4.70;;;13.30;99.90;;;;;;5095779;28;20039;-83
2022/04/29 16:29:29;;;;;;;9.32;4.95;;;13.20;99.90;;;;;;5093944;28;20084;-82
2022/04/29 16:31:55;;;;;;;9.15;4.30;;;13.10;99.90;;;;;;5094060;28;20044;-82